Time;durP1;ratioP1;P1;durP2;ratioP2;P2;SDS_P1;SDS_P2;PMS_P1;PMS_P2;Temp;Humidity;BMP_temperature;BMP_pressure;BME280_temperature;BME280_humidity;BME280_pressure;Samples;Min_cycle;Max_cycle;Signal;HPM_P1;HPM_P2
2022/01/11 00:00:12;;;;;;;;;;;;;;;;;;2212089;59;18259;-69
2022/01/11 00:02:45;;;;;;;;;;;;;;;;;;2212614;59;15164;-69
2022/01/11 00:05:26;;;;;;;;;;;;;;;;;;2196967;63;20045;-69
2022/01/11 00:08:00;;;;;;;;;;;;;;;;;;2212806;59;21184;-69
2022/01/11 00:10:38;;;;;;;;;;;;;;;;;;2213304;63;17080;-69
2022/01/11 00:13:14;;;;;;;;;;;;;;;;;;2212028;63;26313;-69
2022/01/11 00:15:47;;;;;;;;;;;;;;;;;;2211722;63;18550;-70
2022/01/11 00:18:20;;;;;;;;;;;;;;;;;;2212913;59;21040;-68
2022/01/11 00:20:54;;;;;;;;;;;;;;;;;;2212006;66;21568;-68
2022/01/11 00:26:16;;;;;;;;;;;;;;;;;;2212614;66;14602;-69
2022/01/11 00:28:52;;;;;;;;;;;;;;;;;;2212515;59;23161;-69
2022/01/11 00:31:25;;;;;;;;;;;;;;;;;;2212610;59;20654;-69
2022/01/11 00:34:00;;;;;;;;;;;;;;;;;;2214056;66;19617;-68
2022/01/11 00:36:42;;;;;;;;;;;;;;;;;;2212702;59;17220;-69
2022/01/11 00:39:15;;;;;;;;;;;;;;;;;;2212317;59;13762;-69
2022/01/11 00:41:48;;;;;;;;;;;;;;;;;;2213059;59;24185;-69
2022/01/11 00:44:24;;;;;;;;;;;;;;;;;;2200356;59;19955;-69
2022/01/11 00:46:57;;;;;;;;;;;;;;;;;;2213308;59;29090;-69
2022/01/11 00:49:32;;;;;;;;;;;;;;;;;;2213382;59;17717;-68
2022/01/11 00:52:05;;;;;;;;;;;;;;;;;;2213909;59;18559;-68
2022/01/11 00:54:38;;;;;;;;;;;;;;;;;;2212685;59;16766;-68
2022/01/11 00:57:12;;;;;;;;;;;;;;;;;;2197403;59;16843;-69
2022/01/11 00:59:47;;;;;;;;;;;;;;;;;;2197078;59;21755;-68
2022/01/11 01:02:20;;;;;;;;;;;;;;;;;;2213259;59;27051;-69
2022/01/11 01:04:54;;;;;;;;;;;;;;;;;;2211651;59;17626;-69
2022/01/11 01:07:27;;;;;;;;;;;;;;;;;;2212115;59;20248;-68
2022/01/11 01:10:03;;;;;;;;;;;;;;;;;;2214033;59;19352;-68
2022/01/11 01:12:37;;;;;;;;;;;;;;;;;;2211448;67;14812;-68
2022/01/11 01:15:13;;;;;;;;;;;;;;;;;;2211824;59;20992;-69
2022/01/11 01:17:46;;;;;;;;;;;;;;;;;;2212182;63;24894;-68
2022/01/11 01:20:20;;;;;;;;;;;;;;;;;;2213393;59;13752;-69
2022/01/11 01:22:53;;;;;;;;;;;;;;;;;;2213208;59;15993;-69
2022/01/11 01:25:26;;;;;;;;;;;;;;;;;;2212186;59;18359;-69
2022/01/11 01:27:59;;;;;;;;;;;;;;;;;;2212890;59;23619;-69
2022/01/11 01:30:35;;;;;;;;;;;;;;;;;;2212116;59;17199;-68
2022/01/11 01:33:09;;;;;;;;;;;;;;;;;;2212631;59;16499;-69
2022/01/11 01:35:47;;;;;;;;;;;;;;;;;;2212624;59;22925;-69
2022/01/11 01:38:21;;;;;;;;;;;;;;;;;;2212578;59;23885;-69
2022/01/11 01:40:59;;;;;;;;;;;;;;;;;;2212807;59;15849;-69
2022/01/11 01:43:32;;;;;;;;;;;;;;;;;;2211058;59;24735;-69
2022/01/11 01:46:08;;;;;;;;;;;;;;;;;;2213011;59;19004;-69
2022/01/11 01:48:41;;;;;;;;;;;;;;;;;;2213068;59;16932;-69
2022/01/11 01:51:15;;;;;;;;;;;;;;;;;;2212987;59;15217;-69
2022/01/11 01:53:49;;;;;;;;;;;;;;;;;;2212188;59;19714;-70
2022/01/11 01:56:23;;;;;;;;;;;;;;;;;;2212707;59;14826;-69
2022/01/11 01:58:57;;;;;;;;;;;;;;;;;;2213050;59;18895;-69
2022/01/11 02:01:37;;;;;;;;;;;;;;;;;;2211528;59;22165;-69
2022/01/11 02:04:10;;;;;;;;;;;;;;;;;;2213856;66;15902;-69
2022/01/11 02:06:44;;;;;;;;;;;;;;;;;;2212150;67;26612;-69
2022/01/11 02:09:17;;;;;;;;;;;;;;;;;;2213348;59;16915;-69
2022/01/11 02:11:51;;;;;;;;;;;;;;;;;;2213534;66;18224;-69
2022/01/11 02:14:26;;;;;;;;;;;;;;;;;;2213328;59;14334;-69
2022/01/11 02:17:02;;;;;;;;;;;;;;;;;;2213007;59;15106;-69
2022/01/11 02:19:35;;;;;;;;;;;;;;;;;;2211906;59;16621;-69
2022/01/11 02:22:11;;;;;;;;;;;;;;;;;;2213691;59;24684;-71
2022/01/11 02:24:44;;;;;;;;;;;;;;;;;;2212637;59;16411;-69
2022/01/11 02:27:17;;;;;;;;;;;;;;;;;;2212259;63;16365;-69
2022/01/11 02:29:51;;;;;;;;;;;;;;;;;;2212086;59;24258;-69
2022/01/11 02:32:24;;;;;;;;;;;;;;;;;;2212353;59;15255;-69
2022/01/11 02:34:57;;;;;;;;;;;;;;;;;;2213095;67;16923;-69
2022/01/11 02:37:33;;;;;;;;;;;;;;;;;;2211796;59;26759;-69
2022/01/11 02:40:06;;;;;;;;;;;;;;;;;;2211391;59;22590;-69
2022/01/11 02:42:39;;;;;;;;;;;;;;;;;;2212400;59;16576;-69
2022/01/11 02:45:16;;;;;;;;;;;;;;;;;;2211814;66;17445;-69
2022/01/11 02:47:50;;;;;;;;;;;;;;;;;;2210298;59;21035;-69
2022/01/11 02:50:24;;;;;;;;;;;;;;;;;;2212710;59;15337;-69
2022/01/11 02:53:00;;;;;;;;;;;;;;;;;;2213899;59;15440;-69
2022/01/11 02:55:37;;;;;;;;;;;;;;;;;;2212911;66;24540;-69
2022/01/11 02:58:10;;;;;;;;;;;;;;;;;;2214437;59;17555;-68
2022/01/11 03:00:43;;;;;;;;;;;;;;;;;;2211430;59;17898;-68
2022/01/11 03:03:22;;;;;;;;;;;;;;;;;;2212819;59;20042;-70
2022/01/11 03:05:57;;;;;;;;;;;;;;;;;;2212598;59;18735;-68
2022/01/11 03:08:34;;;;;;;;;;;;;;;;;;2214297;59;18759;-68
2022/01/11 03:11:07;;;;;;;;;;;;;;;;;;2212306;59;20872;-68
2022/01/11 03:13:43;;;;;;;;;;;;;;;;;;2211409;59;28573;-69
2022/01/11 03:16:17;;;;;;;;;;;;;;;;;;2214100;64;24621;-68
2022/01/11 03:18:50;;;;;;;;;;;;;;;;;;2211964;59;17290;-68
2022/01/11 03:21:23;;;;;;;;;;;;;;;;;;2212169;66;16513;-68
2022/01/11 03:24:00;;;;;;;;;;;;;;;;;;2214042;63;16175;-68
2022/01/11 03:26:33;;;;;;;;;;;;;;;;;;2213580;66;22818;-68
2022/01/11 03:29:06;;;;;;;;;;;;;;;;;;2211595;59;30954;-68
2022/01/11 03:31:39;;;;;;;;;;;;;;;;;;2212641;59;22262;-68
2022/01/11 03:34:18;;;;;;;;;;;;;;;;;;2214135;59;23983;-68
2022/01/11 03:36:51;;;;;;;;;;;;;;;;;;2213327;59;19495;-68
2022/01/11 03:39:27;;;;;;;;;;;;;;;;;;2212558;59;15262;-68
2022/01/11 03:42:01;;;;;;;;;;;;;;;;;;2213510;59;24201;-69
2022/01/11 03:44:34;;;;;;;;;;;;;;;;;;2213664;59;23504;-68
2022/01/11 03:47:08;;;;;;;;;;;;;;;;;;2212849;59;17356;-68
2022/01/11 03:49:41;;;;;;;;;;;;;;;;;;2213185;59;20822;-68
2022/01/11 03:52:14;;;;;;;;;;;;;;;;;;2213247;67;15292;-68
2022/01/11 03:55:03;;;;;;;;;;;;;;;;;;2213912;59;18043;-68
2022/01/11 03:57:36;;;;;;;;;;;;;;;;;;2197790;59;18848;-68
2022/01/11 04:00:11;;;;;;;;;;;;;;;;;;2212047;60;23170;-68
2022/01/11 04:02:44;;;;;;;;;;;;;;;;;;2213080;66;15671;-68
2022/01/11 04:05:18;;;;;;;;;;;;;;;;;;2212487;66;18181;-68
2022/01/11 04:07:51;;;;;;;;;;;;;;;;;;2213694;59;14169;-68
2022/01/11 04:10:27;;;;;;;;;;;;;;;;;;2213167;59;17292;-68
2022/01/11 04:13:00;;;;;;;;;;;;;;;;;;2212556;59;15333;-68
2022/01/11 04:15:33;;;;;;;;;;;;;;;;;;2212325;59;23212;-68
2022/01/11 04:18:06;;;;;;;;;;;;;;;;;;2213270;59;17600;-68
2022/01/11 04:20:40;;;;;;;;;;;;;;;;;;2213024;63;20445;-68
2022/01/11 04:23:13;;;;;;;;;;;;;;;;;;2212329;59;16487;-71
2022/01/11 04:25:49;;;;;;;;;;;;;;;;;;2212343;66;15712;-67
2022/01/11 04:28:23;;;;;;;;;;;;;;;;;;2212652;59;17232;-68
2022/01/11 04:30:58;;;;;;;;;;;;;;;;;;2212735;59;26881;-68
2022/01/11 04:33:31;;;;;;;;;;;;;;;;;;2212288;59;17607;-68
2022/01/11 04:36:05;;;;;;;;;;;;;;;;;;2213419;59;15835;-68
2022/01/11 04:38:38;;;;;;;;;;;;;;;;;;2212249;59;16766;-67
2022/01/11 04:41:14;;;;;;;;;;;;;;;;;;2212436;66;17030;-68
2022/01/11 04:43:47;;;;;;;;;;;;;;;;;;2211912;59;21358;-68
2022/01/11 04:46:21;;;;;;;;;;;;;;;;;;2211962;59;17832;-68
2022/01/11 04:48:54;;;;;;;;;;;;;;;;;;2211567;59;26477;-68
2022/01/11 04:51:27;;;;;;;;;;;;;;;;;;2211601;59;16386;-68
2022/01/11 04:54:00;;;;;;;;;;;;;;;;;;2212440;67;16557;-68
2022/01/11 04:56:36;;;;;;;;;;;;;;;;;;2213009;59;14539;-68
2022/01/11 04:59:09;;;;;;;;;;;;;;;;;;2211993;59;14390;-68
2022/01/11 05:01:43;;;;;;;;;;;;;;;;;;2211945;59;23215;-68
2022/01/11 05:04:16;;;;;;;;;;;;;;;;;;2212835;66;25935;-69
2022/01/11 05:06:49;;;;;;;;;;;;;;;;;;2211339;59;15546;-68
2022/01/11 05:09:23;;;;;;;;;;;;;;;;;;2211125;59;17660;-68
2022/01/11 05:11:58;;;;;;;;;;;;;;;;;;2211385;67;15184;-68
2022/01/11 05:14:32;;;;;;;;;;;;;;;;;;2212000;66;17402;-68
2022/01/11 05:17:05;;;;;;;;;;;;;;;;;;2211673;59;18694;-68
2022/01/11 05:19:38;;;;;;;;;;;;;;;;;;2211189;59;23482;-68
2022/01/11 05:22:11;;;;;;;;;;;;;;;;;;2212078;66;15278;-68
2022/01/11 05:24:44;;;;;;;;;;;;;;;;;;2212735;59;20056;-68
2022/01/11 05:27:20;;;;;;;;;;;;;;;;;;2211941;66;15439;-68
2022/01/11 05:29:53;;;;;;;;;;;;;;;;;;2212662;59;15295;-67
2022/01/11 05:32:26;;;;;;;;;;;;;;;;;;2210748;59;13937;-68
2022/01/11 05:35:00;;;;;;;;;;;;;;;;;;2211788;59;17441;-68
2022/01/11 05:37:33;;;;;;;;;;;;;;;;;;2210345;59;32448;-68
2022/01/11 05:40:07;;;;;;;;;;;;;;;;;;2211353;59;18178;-68
2022/01/11 05:42:43;;;;;;;;;;;;;;;;;;2211678;63;18116;-68
2022/01/11 05:45:16;;;;;;;;;;;;;;;;;;2210604;59;16781;-68
2022/01/11 05:47:52;;;;;;;;;;;;;;;;;;2211240;59;15107;-69
2022/01/11 05:50:25;;;;;;;;;;;;;;;;;;2210057;67;17460;-67
2022/01/11 05:52:58;;;;;;;;;;;;;;;;;;2210946;59;15399;-68
2022/01/11 05:55:31;;;;;;;;;;;;;;;;;;2211396;63;20186;-68
2022/01/11 05:58:07;;;;;;;;;;;;;;;;;;2212633;59;14362;-68
2022/01/11 06:00:40;;;;;;;;;;;;;;;;;;2212671;59;16057;-68
2022/01/11 06:03:14;;;;;;;;;;;;;;;;;;2211180;59;18995;-68
2022/01/11 06:05:47;;;;;;;;;;;;;;;;;;2211630;59;15317;-68
2022/01/11 06:08:20;;;;;;;;;;;;;;;;;;2212228;59;25414;-68
2022/01/11 06:10:53;;;;;;;;;;;;;;;;;;2211274;59;16071;-67
2022/01/11 06:13:29;;;;;;;;;;;;;;;;;;2211115;59;17506;-67
2022/01/11 06:16:02;;;;;;;;;;;;;;;;;;2211936;59;20311;-68
2022/01/11 06:18:35;;;;;;;;;;;;;;;;;;2211394;59;19444;-70
2022/01/11 06:21:08;;;;;;;;;;;;;;;;;;2212442;59;18475;-71
2022/01/11 06:23:41;;;;;;;;;;;;;;;;;;2210193;63;26580;-68
2022/01/11 06:26:15;;;;;;;;;;;;;;;;;;2209745;59;19278;-68
2022/01/11 06:28:50;;;;;;;;;;;;;;;;;;2212430;59;14315;-69
2022/01/11 06:31:24;;;;;;;;;;;;;;;;;;2211254;59;20400;-68
2022/01/11 06:33:57;;;;;;;;;;;;;;;;;;2196584;63;20860;-68
2022/01/11 06:36:30;;;;;;;;;;;;;;;;;;2212143;66;15305;-68
2022/01/11 06:39:03;;;;;;;;;;;;;;;;;;2210927;59;21795;-68
2022/01/11 06:41:37;;;;;;;;;;;;;;;;;;2209948;59;22995;-68
2022/01/11 06:44:13;;;;;;;;;;;;;;;;;;2211502;59;16560;-68
2022/01/11 06:46:46;;;;;;;;;;;;;;;;;;2211694;59;18084;-68
2022/01/11 06:49:19;;;;;;;;;;;;;;;;;;2195204;59;14501;-68
2022/01/11 06:51:52;;;;;;;;;;;;;;;;;;2211583;60;15485;-68
2022/01/11 06:54:25;;;;;;;;;;;;;;;;;;2210669;66;15182;-68
2022/01/11 06:56:58;;;;;;;;;;;;;;;;;;2212660;66;21543;-68
2022/01/11 06:59:35;;;;;;;;;;;;;;;;;;2211320;59;29823;-68
2022/01/11 07:02:08;;;;;;;;;;;;;;;;;;2213221;59;16042;-68
2022/01/11 07:04:41;;;;;;;;;;;;;;;;;;2209959;59;18784;-68
2022/01/11 07:07:15;;;;;;;;;;;;;;;;;;2212254;64;22558;-68
2022/01/11 07:09:48;;;;;;;;;;;;;;;;;;2210995;59;14689;-68
2022/01/11 07:12:21;;;;;;;;;;;;;;;;;;2211399;66;25926;-68
2022/01/11 07:14:57;;;;;;;;;;;;;;;;;;2211688;59;14223;-68
2022/01/11 07:17:30;;;;;;;;;;;;;;;;;;2211039;59;16755;-68
2022/01/11 07:20:03;;;;;;;;;;;;;;;;;;2212167;66;16377;-68
2022/01/11 07:22:37;;;;;;;;;;;;;;;;;;2212747;59;20401;-68
2022/01/11 07:25:11;;;;;;;;;;;;;;;;;;2211762;66;16188;-68
2022/01/11 07:27:44;;;;;;;;;;;;;;;;;;2211110;59;18829;-68
2022/01/11 07:30:20;;;;;;;;;;;;;;;;;;2212174;59;20243;-68
2022/01/11 07:32:53;;;;;;;;;;;;;;;;;;2209498;59;23822;-68
2022/01/11 07:35:26;;;;;;;;;;;;;;;;;;2211916;59;15710;-68
2022/01/11 07:37:59;;;;;;;;;;;;;;;;;;2211997;66;16759;-68
2022/01/11 07:40:33;;;;;;;;;;;;;;;;;;2213134;59;15402;-67
2022/01/11 07:43:06;;;;;;;;;;;;;;;;;;2212730;59;16172;-67
2022/01/11 07:45:42;;;;;;;;;;;;;;;;;;2211785;59;22018;-69
2022/01/11 07:48:15;;;;;;;;;;;;;;;;;;2210086;59;20189;-68
2022/01/11 07:50:48;;;;;;;;;;;;;;;;;;2208834;59;20875;-67
2022/01/11 07:53:21;;;;;;;;;;;;;;;;;;2208938;59;15713;-67
2022/01/11 07:55:54;;;;;;;;;;;;;;;;;;2211545;59;19021;-67
2022/01/11 07:58:27;;;;;;;;;;;;;;;;;;2212483;59;14927;-67
2022/01/11 08:01:03;;;;;;;;;;;;;;;;;;2208907;59;19642;-67
2022/01/11 08:03:36;;;;;;;;;;;;;;;;;;2211318;63;27673;-67
2022/01/11 08:06:09;;;;;;;;;;;;;;;;;;2211865;59;17001;-67
2022/01/11 08:08:42;;;;;;;;;;;;;;;;;;2212064;59;14429;-68
2022/01/11 08:11:16;;;;;;;;;;;;;;;;;;2209675;59;15671;-67
2022/01/11 08:13:49;;;;;;;;;;;;;;;;;;2209903;59;19645;-68
2022/01/11 08:16:25;;;;;;;;;;;;;;;;;;2210469;67;15436;-67
2022/01/11 08:18:58;;;;;;;;;;;;;;;;;;2211955;63;24986;-67
2022/01/11 08:21:31;;;;;;;;;;;;;;;;;;2195632;59;17043;-68
2022/01/11 08:24:04;;;;;;;;;;;;;;;;;;2212464;67;19450;-68
2022/01/11 08:26:37;;;;;;;;;;;;;;;;;;2212413;59;15375;-68
2022/01/11 08:29:10;;;;;;;;;;;;;;;;;;2210773;59;17619;-68
2022/01/11 08:31:46;;;;;;;;;;;;;;;;;;2211606;59;17064;-68
2022/01/11 08:34:20;;;;;;;;;;;;;;;;;;2213338;59;23745;-67
2022/01/11 08:36:54;;;;;;;;;;;;;;;;;;2212770;59;18801;-68
2022/01/11 08:39:27;;;;;;;;;;;;;;;;;;2195858;59;24082;-68
2022/01/11 08:42:01;;;;;;;;;;;;;;;;;;2211157;59;17020;-68
2022/01/11 08:44:34;;;;;;;;;;;;;;;;;;2211301;59;15525;-68
2022/01/11 08:47:10;;;;;;;;;;;;;;;;;;2210772;59;15959;-68
2022/01/11 08:49:43;;;;;;;;;;;;;;;;;;2197650;59;26508;-68
2022/01/11 08:52:16;;;;;;;;;;;;;;;;;;2212700;59;15144;-70
2022/01/11 08:54:50;;;;;;;;;;;;;;;;;;2212757;66;15461;-70
2022/01/11 08:57:23;;;;;;;;;;;;;;;;;;2210543;59;16548;-71
2022/01/11 08:59:56;;;;;;;;;;;;;;;;;;2212908;59;14954;-68
2022/01/11 09:02:35;;;;;;;;;;;;;;;;;;2213026;67;19817;-68
2022/01/11 09:05:08;;;;;;;;;;;;;;;;;;2212219;67;16889;-68
2022/01/11 09:07:41;;;;;;;;;;;;;;;;;;2211935;59;18477;-68
2022/01/11 09:10:15;;;;;;;;;;;;;;;;;;2212456;59;16767;-68
2022/01/11 09:12:49;;;;;;;;;;;;;;;;;;2211678;59;18375;-69
2022/01/11 09:15:22;;;;;;;;;;;;;;;;;;2212048;66;15697;-68
2022/01/11 09:17:58;;;;;;;;;;;;;;;;;;2212253;59;19156;-68
2022/01/11 09:20:32;;;;;;;;;;;;;;;;;;2213187;59;18140;-68
2022/01/11 09:23:05;;;;;;;;;;;;;;;;;;2212071;59;23875;-68
2022/01/11 09:25:39;;;;;;;;;;;;;;;;;;2210942;63;18606;-68
2022/01/11 09:28:12;;;;;;;;;;;;;;;;;;2212789;59;18399;-68
2022/01/11 09:30:45;;;;;;;;;;;;;;;;;;2212969;59;15923;-68
2022/01/11 09:33:21;;;;;;;;;;;;;;;;;;2208677;59;21365;-68
2022/01/11 09:35:54;;;;;;;;;;;;;;;;;;2212736;59;14310;-68
2022/01/11 09:38:27;;;;;;;;;;;;;;;;;;2211653;59;25901;-68
2022/01/11 09:41:01;;;;;;;;;;;;;;;;;;2211831;59;29670;-68
2022/01/11 09:43:34;;;;;;;;;;;;;;;;;;2211551;59;16615;-68
2022/01/11 09:46:07;;;;;;;;;;;;;;;;;;2213034;66;17790;-68
2022/01/11 09:48:45;;;;;;;;;;;;;;;;;;2212106;59;15278;-69
2022/01/11 09:51:18;;;;;;;;;;;;;;;;;;2211952;59;13995;-68
2022/01/11 09:53:51;;;;;;;;;;;;;;;;;;2196049;60;22640;-71
2022/01/11 09:56:24;;;;;;;;;;;;;;;;;;2212966;59;17845;-69
2022/01/11 09:58:58;;;;;;;;;;;;;;;;;;2211701;59;15735;-69
2022/01/11 10:01:31;;;;;;;;;;;;;;;;;;2211986;66;16784;-68
2022/01/11 10:04:08;;;;;;;;;;;;;;;;;;2212388;61;16982;-68
2022/01/11 10:06:43;;;;;;;;;;;;;;;;;;2212343;59;19759;-68
2022/01/11 10:09:20;;;;;;;;;;;;;;;;;;2211641;59;25581;-69
2022/01/11 10:11:54;;;;;;;;;;;;;;;;;;2213381;59;16050;-68
2022/01/11 10:14:29;;;;;;;;;;;;;;;;;;2212217;59;22936;-68
2022/01/11 10:17:08;;;;;;;;;;;;;;;;;;2196717;59;21910;-68
2022/01/11 10:19:45;;;;;;;;;;;;;;;;;;2210468;59;16206;-68
2022/01/11 10:22:19;;;;;;;;;;;;;;;;;;2211942;59;19042;-68
2022/01/11 10:24:53;;;;;;;;;;;;;;;;;;2211600;66;15882;-68
2022/01/11 10:27:28;;;;;;;;;;;;;;;;;;2211646;66;25091;-69
2022/01/11 10:30:02;;;;;;;;;;;;;;;;;;2212882;59;15283;-68
2022/01/11 10:32:36;;;;;;;;;;;;;;;;;;2212008;59;21104;-68
2022/01/11 10:35:13;;;;;;;;;;;;;;;;;;2212212;66;17657;-68
2022/01/11 10:37:47;;;;;;;;;;;;;;;;;;2201473;59;18699;-68
2022/01/11 10:40:22;;;;;;;;;;;;;;;;;;2211927;59;14782;-68
2022/01/11 10:42:56;;;;;;;;;;;;;;;;;;2212281;67;21446;-68
2022/01/11 10:45:30;;;;;;;;;;;;;;;;;;2212417;66;16910;-68
2022/01/11 10:48:05;;;;;;;;;;;;;;;;;;2213383;59;19089;-68
2022/01/11 10:50:42;;;;;;;;;;;;;;;;;;2212964;59;16560;-68
2022/01/11 10:53:17;;;;;;;;;;;;;;;;;;2211906;63;17682;-68
2022/01/11 10:55:51;;;;;;;;;;;;;;;;;;2211017;67;16894;-68
2022/01/11 10:58:25;;;;;;;;;;;;;;;;;;2212450;59;21243;-68
2022/01/11 11:00:58;;;;;;;;;;;;;;;;;;2212713;59;14594;-68
2022/01/11 11:03:33;;;;;;;;;;;;;;;;;;2211321;66;16647;-68
2022/01/11 11:06:10;;;;;;;;;;;;;;;;;;2197314;59;14977;-69
2022/01/11 11:08:44;;;;;;;;;;;;;;;;;;2212768;59;15208;-68
2022/01/11 11:11:20;;;;;;;;;;;;;;;;;;2212353;59;16507;-68
2022/01/11 11:13:54;;;;;;;;;;;;;;;;;;2213706;59;22566;-69
2022/01/11 11:16:29;;;;;;;;;;;;;;;;;;2212928;64;15744;-69
2022/01/11 11:19:04;;;;;;;;;;;;;;;;;;2212726;59;20855;-68
2022/01/11 11:21:40;;;;;;;;;;;;;;;;;;2211977;59;17428;-68
2022/01/11 11:24:14;;;;;;;;;;;;;;;;;;2212882;66;16236;-69
2022/01/11 11:26:49;;;;;;;;;;;;;;;;;;2213394;59;22139;-69
2022/01/11 11:29:26;;;;;;;;;;;;;;;;;;2212037;59;23934;-68
2022/01/11 11:31:59;;;;;;;;;;;;;;;;;;2212921;59;26280;-69
2022/01/11 11:34:33;;;;;;;;;;;;;;;;;;2213490;59;16487;-69
2022/01/11 11:37:10;;;;;;;;;;;;;;;;;;2213000;63;15746;-68
2022/01/11 11:39:44;;;;;;;;;;;;;;;;;;2212304;59;18871;-69
2022/01/11 11:42:18;;;;;;;;;;;;;;;;;;2213781;59;14953;-73
2022/01/11 11:44:51;;;;;;;;;;;;;;;;;;2212930;66;14494;-68
2022/01/11 11:47:35;;;;;;;;;;;;;;;;;;2212964;59;26869;-69
2022/01/11 11:50:09;;;;;;;;;;;;;;;;;;2212911;59;15709;-69
2022/01/11 11:52:45;;;;;;;;;;;;;;;;;;2212939;59;18231;-69
2022/01/11 11:55:23;;;;;;;;;;;;;;;;;;2212027;59;20828;-70
2022/01/11 11:57:57;;;;;;;;;;;;;;;;;;2212254;59;14033;-71
2022/01/11 12:00:32;;;;;;;;;;;;;;;;;;2210621;59;21581;-68
2022/01/11 12:03:19;;;;;;;;;;;;;;;;;;2211841;67;15923;-69
2022/01/11 12:05:53;;;;;;;;;;;;;;;;;;2210773;67;15840;-68
2022/01/11 12:08:31;;;;;;;;;;;;;;;;;;2213976;59;15328;-69
2022/01/11 12:11:08;;;;;;;;;;;;;;;;;;2211480;59;17375;-68
2022/01/11 12:13:43;;;;;;;;;;;;;;;;;;2211810;59;23096;-68
2022/01/11 12:16:38;;;;;;;;;;;;;;;;;;2209783;59;14907;-69
2022/01/11 12:19:29;;;;;;;;;;;;;;;;;;2211066;66;17727;-74
2022/01/11 12:22:22;;;;;;;;;;;;;;;;;;2211064;59;19662;-69
2022/01/11 12:24:58;;;;;;;;;;;;;;;;;;2211004;59;15134;-69
2022/01/11 12:27:31;;;;;;;;;;;;;;;;;;2212322;59;17305;-69
2022/01/11 12:30:07;;;;;;;;;;;;;;;;;;2203345;53;14323;-69
2022/01/11 12:33:00;;;;;;;;;;;;;;;;;;2196936;59;16072;-70
2022/01/11 12:35:33;;;;;;;;;;;;;;;;;;2194373;59;21866;-69
2022/01/11 12:38:10;;;;;;;;;;;;;;;;;;2198043;59;14327;-69
2022/01/11 12:40:47;;;;;;;;;;;;;;;;;;2196716;59;48180;-69
2022/01/11 12:43:36;;;;;;;;;;;;;;;;;;2208825;59;15535;-69
2022/01/11 12:46:10;;;;;;;;;;;;;;;;;;2197582;58;18970;-69
2022/01/11 12:48:57;;;;;;;;;;;;;;;;;;2197245;59;16741;-69
2022/01/11 12:51:33;;;;;;;;;;;;;;;;;;2196738;59;28864;-69
2022/01/11 12:54:26;;;;;;;;;;;;;;;;;;2197852;58;17348;-69
2022/01/11 12:57:03;;;;;;;;;;;;;;;;;;2197447;67;17235;-69
2022/01/11 12:59:38;;;;;;;;;;;;;;;;;;2197760;59;21107;-69
2022/01/11 13:02:12;;;;;;;;;;;;;;;;;;2198947;59;16426;-69
2022/01/11 13:04:48;;;;;;;;;;;;;;;;;;2197367;59;18892;-69
2022/01/11 13:07:31;;;;;;;;;;;;;;;;;;2196495;63;36321;-69
2022/01/11 13:10:11;;;;;;;;;;;;;;;;;;2196397;59;15724;-69
2022/01/11 13:12:51;;;;;;;;;;;;;;;;;;2197610;59;17084;-69
2022/01/11 13:15:32;;;;;;;;;;;;;;;;;;2196162;59;26407;-69
2022/01/11 13:18:09;;;;;;;;;;;;;;;;;;2197308;58;15748;-69
2022/01/11 13:20:43;;;;;;;;;;;;;;;;;;2197101;59;16466;-69
2022/01/11 13:23:21;;;;;;;;;;;;;;;;;;2208316;63;50179;-69
2022/01/11 13:25:55;;;;;;;;;;;;;;;;;;2196370;59;35695;-69
2022/01/11 13:28:38;;;;;;;;;;;;;;;;;;2196003;59;17723;-69
2022/01/11 13:31:12;;;;;;;;;;;;;;;;;;2196789;59;21514;-69
2022/01/11 13:33:48;;;;;;;;;;;;;;;;;;2194994;67;26337;-69
2022/01/11 13:36:23;;;;;;;;;;;;;;;;;;2196371;59;15833;-69
2022/01/11 13:38:59;;;;;;;;;;;;;;;;;;2212084;59;14937;-70
2022/01/11 13:41:33;;;;;;;;;;;;;;;;;;2196802;59;22657;-69
2022/01/11 13:44:11;;;;;;;;;;;;;;;;;;2197777;59;21172;-69
2022/01/11 13:46:45;;;;;;;;;;;;;;;;;;2197145;59;18868;-69
2022/01/11 13:49:19;;;;;;;;;;;;;;;;;;2196899;58;21625;-69
2022/01/11 13:51:54;;;;;;;;;;;;;;;;;;2210110;59;15964;-69
2022/01/11 13:54:33;;;;;;;;;;;;;;;;;;2209020;59;18330;-68
2022/01/11 13:57:08;;;;;;;;;;;;;;;;;;2198121;59;23044;-69
2022/01/11 13:59:45;;;;;;;;;;;;;;;;;;2196779;58;22950;-69
2022/01/11 14:02:21;;;;;;;;;;;;;;;;;;2197988;58;15187;-69
2022/01/11 14:04:55;;;;;;;;;;;;;;;;;;2197242;59;15378;-69
2022/01/11 14:07:31;;;;;;;;;;;;;;;;;;2196428;58;18480;-69
2022/01/11 14:10:06;;;;;;;;;;;;;;;;;;2197134;59;12901;-69
2022/01/11 14:12:43;;;;;;;;;;;;;;;;;;2197543;59;19669;-69
2022/01/11 14:15:22;;;;;;;;;;;;;;;;;;2196157;66;22329;-69
2022/01/11 14:17:55;;;;;;;;;;;;;;;;;;2198233;58;17921;-70
2022/01/11 14:20:30;;;;;;;;;;;;;;;;;;2197270;67;16002;-69
2022/01/11 14:23:10;;;;;;;;;;;;;;;;;;2196782;58;21186;-69
2022/01/11 14:25:44;;;;;;;;;;;;;;;;;;2196480;59;20504;-69
2022/01/11 14:28:18;;;;;;;;;;;;;;;;;;2197083;59;16986;-69
2022/01/11 14:30:56;;;;;;;;;;;;;;;;;;2196690;59;26099;-69
2022/01/11 14:33:31;;;;;;;;;;;;;;;;;;2196837;59;17094;-69
2022/01/11 14:36:06;;;;;;;;;;;;;;;;;;2197997;59;24310;-69
2022/01/11 14:38:41;;;;;;;;;;;;;;;;;;2196846;63;19885;-69
2022/01/11 14:41:16;;;;;;;;;;;;;;;;;;2196913;59;20364;-69
2022/01/11 14:43:59;;;;;;;;;;;;;;;;;;2197115;67;18470;-69
2022/01/11 14:46:42;;;;;;;;;;;;;;;;;;2198268;59;21571;-69
2022/01/11 14:49:16;;;;;;;;;;;;;;;;;;2196876;59;17550;-69
2022/01/11 14:51:51;;;;;;;;;;;;;;;;;;2197217;63;19970;-69
2022/01/11 14:54:26;;;;;;;;;;;;;;;;;;2197717;59;16973;-69
2022/01/11 14:57:01;;;;;;;;;;;;;;;;;;2197894;58;17622;-69
2022/01/11 14:59:37;;;;;;;;;;;;;;;;;;2196669;59;15214;-69
2022/01/11 15:02:14;;;;;;;;;;;;;;;;;;2195591;59;24180;-68
2022/01/11 15:04:47;;;;;;;;;;;;;;;;;;2196815;59;18969;-69
2022/01/11 15:07:23;;;;;;;;;;;;;;;;;;2200499;63;23550;-69
2022/01/11 15:09:56;;;;;;;;;;;;;;;;;;2198641;59;17152;-69
2022/01/11 15:12:29;;;;;;;;;;;;;;;;;;2196759;59;29505;-69
2022/01/11 15:15:03;;;;;;;;;;;;;;;;;;2198775;59;15207;-68
2022/01/11 15:17:40;;;;;;;;;;;;;;;;;;2199646;67;26841;-70
2022/01/11 15:20:14;;;;;;;;;;;;;;;;;;2199128;59;15068;-69
2022/01/11 15:22:50;;;;;;;;;;;;;;;;;;2197029;59;16217;-69
2022/01/11 15:25:23;;;;;;;;;;;;;;;;;;2199732;59;20549;-69
2022/01/11 15:27:56;;;;;;;;;;;;;;;;;;2199708;59;15614;-69
2022/01/11 15:30:29;;;;;;;;;;;;;;;;;;2198617;59;16883;-69
2022/01/11 15:33:05;;;;;;;;;;;;;;;;;;2197683;59;18309;-69
2022/01/11 15:35:38;;;;;;;;;;;;;;;;;;2195909;59;29471;-69
2022/01/11 15:38:11;;;;;;;;;;;;;;;;;;2197976;59;14453;-69
2022/01/11 15:40:45;;;;;;;;;;;;;;;;;;2197679;66;22807;-69
2022/01/11 15:43:18;;;;;;;;;;;;;;;;;;2196568;59;21771;-69
2022/01/11 15:45:51;;;;;;;;;;;;;;;;;;2198344;67;20585;-69
2022/01/11 15:48:28;;;;;;;;;;;;;;;;;;2195924;59;15721;-69
2022/01/11 15:51:01;;;;;;;;;;;;;;;;;;2197120;63;16865;-69
2022/01/11 15:53:34;;;;;;;;;;;;;;;;;;2196566;59;25314;-68
2022/01/11 15:56:07;;;;;;;;;;;;;;;;;;2197720;59;18980;-69
2022/01/11 15:58:40;;;;;;;;;;;;;;;;;;2198350;59;16467;-68
2022/01/11 16:01:14;;;;;;;;;;;;;;;;;;2209099;59;19382;-69
2022/01/11 16:03:49;;;;;;;;;;;;;;;;;;2197422;67;21380;-69
2022/01/11 16:06:23;;;;;;;;;;;;;;;;;;2197388;59;15816;-69
2022/01/11 16:08:56;;;;;;;;;;;;;;;;;;2197649;59;20951;-69
2022/01/11 16:11:29;;;;;;;;;;;;;;;;;;2197152;63;26275;-69
2022/01/11 16:14:03;;;;;;;;;;;;;;;;;;2198242;59;14286;-69
2022/01/11 16:16:37;;;;;;;;;;;;;;;;;;2197870;59;16417;-69
2022/01/11 16:19:12;;;;;;;;;;;;;;;;;;2198210;59;14225;-69
2022/01/11 16:21:46;;;;;;;;;;;;;;;;;;2208711;59;22059;-69
2022/01/11 16:24:19;;;;;;;;;;;;;;;;;;2198015;67;15589;-69
2022/01/11 16:26:54;;;;;;;;;;;;;;;;;;2198366;59;24085;-69
2022/01/11 16:29:34;;;;;;;;;;;;;;;;;;2196493;59;16785;-69
2022/01/11 16:32:07;;;;;;;;;;;;;;;;;;2197460;59;20781;-69
2022/01/11 16:34:43;;;;;;;;;;;;;;;;;;2196920;59;17001;-69
2022/01/11 16:37:17;;;;;;;;;;;;;;;;;;2198377;58;17213;-70
2022/01/11 16:39:57;;;;;;;;;;;;;;;;;;2198993;59;20908;-69
2022/01/11 16:42:39;;;;;;;;;;;;;;;;;;2206482;59;16664;-69
2022/01/11 16:45:16;;;;;;;;;;;;;;;;;;2210510;59;14483;-69
2022/01/11 16:47:50;;;;;;;;;;;;;;;;;;2202467;59;20105;-69
2022/01/11 16:50:26;;;;;;;;;;;;;;;;;;2202216;59;16787;-69
2022/01/11 16:52:59;;;;;;;;;;;;;;;;;;2199183;59;18088;-69
2022/01/11 16:55:32;;;;;;;;;;;;;;;;;;2197903;59;20819;-69
2022/01/11 16:58:06;;;;;;;;;;;;;;;;;;2199007;59;26942;-70
2022/01/11 17:00:40;;;;;;;;;;;;;;;;;;2198508;59;20861;-69
2022/01/11 17:03:13;;;;;;;;;;;;;;;;;;2198476;66;19102;-69
2022/01/11 17:05:50;;;;;;;;;;;;;;;;;;2197161;59;15889;-69
2022/01/11 17:08:23;;;;;;;;;;;;;;;;;;2199292;59;17161;-69
2022/01/11 17:10:56;;;;;;;;;;;;;;;;;;2198775;58;16011;-69
2022/01/11 17:13:29;;;;;;;;;;;;;;;;;;2197717;58;22304;-69
2022/01/11 17:16:02;;;;;;;;;;;;;;;;;;2198611;59;15651;-69
2022/01/11 17:18:35;;;;;;;;;;;;;;;;;;2198567;59;15862;-69
2022/01/11 17:21:11;;;;;;;;;;;;;;;;;;2198730;66;15697;-69
2022/01/11 17:23:44;;;;;;;;;;;;;;;;;;2197301;67;25775;-69
2022/01/11 17:26:17;;;;;;;;;;;;;;;;;;2198940;58;23113;-69
2022/01/11 17:28:51;;;;;;;;;;;;;;;;;;2197922;59;15248;-69
2022/01/11 17:31:24;;;;;;;;;;;;;;;;;;2198420;59;22849;-70
2022/01/11 17:33:57;;;;;;;;;;;;;;;;;;2198708;66;17625;-70
2022/01/11 17:36:33;;;;;;;;;;;;;;;;;;2198747;59;21456;-69
2022/01/11 17:39:06;;;;;;;;;;;;;;;;;;2198265;59;16173;-69